sensor_id;sensor_type;location;lat;lon;timestamp;pressure;altitude;pressure_sealevel;temperature;humidity
54876;BME280;40764;48.472;8.166;2022-09-09T00:04:01;97886.59;;;16.57;87.50
54876;BME280;40764;48.472;8.166;2022-09-09T00:10:19;97889.78;;;16.80;86.16
54876;BME280;40764;48.472;8.166;2022-09-09T00:16:27;97894.50;;;16.80;86.01
54876;BME280;40764;48.472;8.166;2022-09-09T00:22:30;97889.56;;;16.85;85.74
54876;BME280;40764;48.472;8.166;2022-09-09T00:28:39;97885.34;;;16.55;87.77
54876;BME280;40764;48.472;8.166;2022-09-09T00:34:47;97893.28;;;16.56;88.13
54876;BME280;40764;48.472;8.166;2022-09-09T00:41:09;97911.53;;;16.94;86.56
54876;BME280;40764;48.472;8.166;2022-09-09T00:54:03;97920.75;;;16.65;87.46
54876;BME280;40764;48.472;8.166;2022-09-09T01:00:35;97922.75;;;16.31;89.05
54876;BME280;40764;48.472;8.166;2022-09-09T01:06:41;97923.81;;;16.18;90.07
54876;BME280;40764;48.472;8.166;2022-09-09T01:12:46;97914.44;;;15.98;90.37
54876;BME280;40764;48.472;8.166;2022-09-09T01:18:50;97917.72;;;16.13;89.96
54876;BME280;40764;48.472;8.166;2022-09-09T01:31:06;97909.97;;;16.27;89.52
54876;BME280;40764;48.472;8.166;2022-09-09T01:37:10;97909.16;;;16.26;89.59
54876;BME280;40764;48.472;8.166;2022-09-09T01:43:12;97895.16;;;16.31;89.13
54876;BME280;40764;48.472;8.166;2022-09-09T01:49:13;97886.84;;;16.19;89.08
54876;BME280;40764;48.472;8.166;2022-09-09T01:55:14;97898.59;;;16.28;89.08
54876;BME280;40764;48.472;8.166;2022-09-09T02:01:27;97895.47;;;16.63;87.73
54876;BME280;40764;48.472;8.166;2022-09-09T02:13:40;97891.28;;;16.45;87.01
54876;BME280;40764;48.472;8.166;2022-09-09T02:19:47;97874.69;;;16.32;88.51
54876;BME280;40764;48.472;8.166;2022-09-09T02:25:51;97888.47;;;16.20;89.09
54876;BME280;40764;48.472;8.166;2022-09-09T02:31:55;97897.53;;;16.21;89.31
54876;BME280;40764;48.472;8.166;2022-09-09T02:38:02;97896.59;;;16.17;89.41
54876;BME280;40764;48.472;8.166;2022-09-09T02:44:10;97890.31;;;15.95;89.56
54876;BME280;40764;48.472;8.166;2022-09-09T02:56:25;97891.47;;;15.94;88.44
54876;BME280;40764;48.472;8.166;2022-09-09T03:02:28;97891.72;;;15.80;88.83
54876;BME280;40764;48.472;8.166;2022-09-09T03:08:28;97885.75;;;15.78;88.18
54876;BME280;40764;48.472;8.166;2022-09-09T03:14:29;97894.63;;;16.17;86.73
54876;BME280;40764;48.472;8.166;2022-09-09T03:20:30;97884.38;;;16.05;86.51
54876;BME280;40764;48.472;8.166;2022-09-09T03:26:31;97886.81;;;15.86;87.59
54876;BME280;40764;48.472;8.166;2022-09-09T03:32:31;97879.00;;;15.88;88.12
54876;BME280;40764;48.472;8.166;2022-09-09T03:38:32;97886.06;;;15.98;87.32
54876;BME280;40764;48.472;8.166;2022-09-09T03:44:32;97879.53;;;16.02;86.36
54876;BME280;40764;48.472;8.166;2022-09-09T03:50:32;97881.38;;;15.77;87.04
54876;BME280;40764;48.472;8.166;2022-09-09T03:56:33;97875.88;;;15.77;87.21
54876;BME280;40764;48.472;8.166;2022-09-09T04:02:34;97877.06;;;15.89;86.45
54876;BME280;40764;48.472;8.166;2022-09-09T04:08:35;97866.78;;;15.77;86.41
54876;BME280;40764;48.472;8.166;2022-09-09T04:14:36;97863.41;;;15.50;88.23
54876;BME280;40764;48.472;8.166;2022-09-09T04:20:36;97876.91;;;15.43;87.45
54876;BME280;40764;48.472;8.166;2022-09-09T04:26:37;97873.88;;;15.36;86.48
54876;BME280;40764;48.472;8.166;2022-09-09T04:32:37;97883.97;;;15.53;85.55
54876;BME280;40764;48.472;8.166;2022-09-09T04:38:37;97881.38;;;15.27;86.66
54876;BME280;40764;48.472;8.166;2022-09-09T04:44:38;97896.25;;;15.35;86.67
54876;BME280;40764;48.472;8.166;2022-09-09T04:50:39;97906.59;;;15.38;86.52
54876;BME280;40764;48.472;8.166;2022-09-09T04:56:40;97902.31;;;15.19;86.87
54876;BME280;40764;48.472;8.166;2022-09-09T05:02:42;97907.56;;;15.12;87.78
54876;BME280;40764;48.472;8.166;2022-09-09T05:08:43;97903.03;;;15.08;87.27
54876;BME280;40764;48.472;8.166;2022-09-09T05:14:44;97913.31;;;15.49;85.32
54876;BME280;40764;48.472;8.166;2022-09-09T05:20:44;97917.63;;;15.67;85.04
54876;BME280;40764;48.472;8.166;2022-09-09T05:26:45;97915.06;;;15.54;85.72
54876;BME280;40764;48.472;8.166;2022-09-09T05:38:53;97921.66;;;15.70;86.43
54876;BME280;40764;48.472;8.166;2022-09-09T05:44:54;97918.00;;;15.78;86.00
54876;BME280;40764;48.472;8.166;2022-09-09T05:50:54;97906.38;;;15.72;86.77
54876;BME280;40764;48.472;8.166;2022-09-09T05:56:55;97909.63;;;15.95;85.59
54876;BME280;40764;48.472;8.166;2022-09-09T06:02:55;97910.34;;;16.04;84.99
54876;BME280;40764;48.472;8.166;2022-09-09T06:08:57;97925.16;;;16.33;83.36
54876;BME280;40764;48.472;8.166;2022-09-09T06:14:58;97919.72;;;16.24;84.44
54876;BME280;40764;48.472;8.166;2022-09-09T06:26:58;97916.97;;;16.57;83.67
54876;BME280;40764;48.472;8.166;2022-09-09T06:32:59;97923.94;;;16.88;82.22
54876;BME280;40764;48.472;8.166;2022-09-09T06:38:59;97917.06;;;17.06;82.18
54876;BME280;40764;48.472;8.166;2022-09-09T06:45:00;97919.59;;;17.11;82.29
54876;BME280;40764;48.472;8.166;2022-09-09T06:57:05;97913.34;;;17.75;77.80
54876;BME280;40764;48.472;8.166;2022-09-09T07:03:07;97913.91;;;17.81;77.44
54876;BME280;40764;48.472;8.166;2022-09-09T07:09:09;97923.78;;;17.94;77.67
54876;BME280;40764;48.472;8.166;2022-09-09T07:15:10;97920.91;;;17.90;77.92
54876;BME280;40764;48.472;8.166;2022-09-09T07:21:12;97924.13;;;17.92;77.49
54876;BME280;40764;48.472;8.166;2022-09-09T07:27:13;97934.72;;;17.90;76.19
54876;BME280;40764;48.472;8.166;2022-09-09T07:33:13;97941.09;;;18.19;74.32
54876;BME280;40764;48.472;8.166;2022-09-09T07:39:14;97942.91;;;18.27;75.26
54876;BME280;40764;48.472;8.166;2022-09-09T07:45:14;97930.69;;;18.28;74.08
54876;BME280;40764;48.472;8.166;2022-09-09T07:51:16;97943.00;;;18.03;75.73
54876;BME280;40764;48.472;8.166;2022-09-09T07:57:19;97951.66;;;18.29;75.61
54876;BME280;40764;48.472;8.166;2022-09-09T08:03:21;97943.63;;;18.52;74.74
54876;BME280;40764;48.472;8.166;2022-09-09T08:09:22;97949.66;;;18.70;73.57
54876;BME280;40764;48.472;8.166;2022-09-09T08:15:26;97939.25;;;19.26;71.91
54876;BME280;40764;48.472;8.166;2022-09-09T08:21:28;97946.13;;;19.99;68.79
54876;BME280;40764;48.472;8.166;2022-09-09T08:27:29;97947.44;;;20.24;67.50
54876;BME280;40764;48.472;8.166;2022-09-09T08:33:29;97939.00;;;20.79;65.30
54876;BME280;40764;48.472;8.166;2022-09-09T08:39:30;97930.75;;;21.05;63.42
54876;BME280;40764;48.472;8.166;2022-09-09T08:45:41;97931.00;;;20.96;63.08
54876;BME280;40764;48.472;8.166;2022-09-09T08:51:48;97926.56;;;20.92;62.37
54876;BME280;40764;48.472;8.166;2022-09-09T08:57:50;97923.25;;;20.63;60.92
54876;BME280;40764;48.472;8.166;2022-09-09T09:16:27;97923.56;;;20.39;61.42
54876;BME280;40764;48.472;8.166;2022-09-09T09:28:39;97939.44;;;19.84;66.43
54876;BME280;40764;48.472;8.166;2022-09-09T09:34:40;97945.13;;;19.25;71.74
54876;BME280;40764;48.472;8.166;2022-09-09T09:40:49;97949.16;;;18.96;73.09
54876;BME280;40764;48.472;8.166;2022-09-09T09:46:51;97959.97;;;18.29;76.78
54876;BME280;40764;48.472;8.166;2022-09-09T09:52:55;98000.16;;;17.86;78.33
54876;BME280;40764;48.472;8.166;2022-09-09T09:58:57;98013.19;;;17.86;79.18
54876;BME280;40764;48.472;8.166;2022-09-09T10:05:06;98041.25;;;17.63;81.78
54876;BME280;40764;48.472;8.166;2022-09-09T10:30:20;98026.66;;;17.51;83.54
54876;BME280;40764;48.472;8.166;2022-09-09T10:36:26;98024.03;;;17.79;85.31
54876;BME280;40764;48.472;8.166;2022-09-09T10:42:30;98007.78;;;18.70;81.61
54876;BME280;40764;48.472;8.166;2022-09-09T10:55:17;97981.84;;;18.90;78.09
54876;BME280;40764;48.472;8.166;2022-09-09T11:01:26;97969.44;;;19.31;74.54
54876;BME280;40764;48.472;8.166;2022-09-09T11:07:40;97963.81;;;19.94;76.21
54876;BME280;40764;48.472;8.166;2022-09-09T11:19:54;97945.25;;;20.53;72.70
54876;BME280;40764;48.472;8.166;2022-09-09T11:25:57;97956.56;;;20.83;67.00
54876;BME280;40764;48.472;8.166;2022-09-09T11:38:25;97959.50;;;20.51;67.29
54876;BME280;40764;48.472;8.166;2022-09-09T11:44:30;97951.91;;;20.48;68.72
54876;BME280;40764;48.472;8.166;2022-09-09T11:50:33;97961.34;;;20.44;68.76
54876;BME280;40764;48.472;8.166;2022-09-09T11:56:43;97953.94;;;20.32;69.30
54876;BME280;40764;48.472;8.166;2022-09-09T12:02:50;97972.09;;;21.29;64.01
54876;BME280;40764;48.472;8.166;2022-09-09T12:08:55;97967.19;;;21.00;66.43
54876;BME280;40764;48.472;8.166;2022-09-09T12:21:48;97948.28;;;21.55;64.37
54876;BME280;40764;48.472;8.166;2022-09-09T12:28:05;97950.88;;;21.21;66.12
54876;BME280;40764;48.472;8.166;2022-09-09T12:34:48;97958.00;;;21.19;62.53
54876;BME280;40764;48.472;8.166;2022-09-09T12:40:56;97939.84;;;21.74;61.64
54876;BME280;40764;48.472;8.166;2022-09-09T12:47:00;97935.59;;;21.84;60.71
54876;BME280;40764;48.472;8.166;2022-09-09T12:53:11;97923.41;;;21.65;59.24
54876;BME280;40764;48.472;8.166;2022-09-09T12:59:25;97914.38;;;21.23;59.10
54876;BME280;40764;48.472;8.166;2022-09-09T13:05:43;97915.13;;;21.69;56.18
54876;BME280;40764;48.472;8.166;2022-09-09T13:11:50;97905.75;;;22.41;53.77
54876;BME280;40764;48.472;8.166;2022-09-09T13:17:56;97905.25;;;22.32;52.78
54876;BME280;40764;48.472;8.166;2022-09-09T13:23:57;97893.97;;;22.92;52.53
54876;BME280;40764;48.472;8.166;2022-09-09T13:30:00;97889.47;;;23.75;49.06
54876;BME280;40764;48.472;8.166;2022-09-09T13:36:08;97878.66;;;23.15;47.91
54876;BME280;40764;48.472;8.166;2022-09-09T13:42:23;97869.34;;;22.97;51.41
54876;BME280;40764;48.472;8.166;2022-09-09T13:48:25;97873.84;;;23.12;49.61
54876;BME280;40764;48.472;8.166;2022-09-09T13:54:26;97865.19;;;23.25;49.14
54876;BME280;40764;48.472;8.166;2022-09-09T14:00:32;97869.25;;;22.86;50.06
54876;BME280;40764;48.472;8.166;2022-09-09T14:06:34;97861.19;;;23.22;51.34
54876;BME280;40764;48.472;8.166;2022-09-09T14:12:37;97864.22;;;22.62;51.27
54876;BME280;40764;48.472;8.166;2022-09-09T14:18:38;97865.06;;;21.99;52.82
54876;BME280;40764;48.472;8.166;2022-09-09T14:24:39;97890.88;;;21.40;51.17
54876;BME280;40764;48.472;8.166;2022-09-09T14:30:40;97875.03;;;21.21;52.36
54876;BME280;40764;48.472;8.166;2022-09-09T14:36:41;97859.81;;;21.64;55.68
54876;BME280;40764;48.472;8.166;2022-09-09T14:42:41;97854.97;;;21.87;53.57
54876;BME280;40764;48.472;8.166;2022-09-09T14:48:42;97861.84;;;22.27;51.67
54876;BME280;40764;48.472;8.166;2022-09-09T14:54:43;97869.25;;;22.49;49.72
54876;BME280;40764;48.472;8.166;2022-09-09T15:00:44;97861.59;;;21.49;51.39
54876;BME280;40764;48.472;8.166;2022-09-09T15:06:44;97867.38;;;21.37;50.41
54876;BME280;40764;48.472;8.166;2022-09-09T15:12:48;97873.63;;;21.30;51.47
54876;BME280;40764;48.472;8.166;2022-09-09T15:18:52;97889.84;;;21.51;53.28
54876;BME280;40764;48.472;8.166;2022-09-09T15:24:54;97900.06;;;21.44;50.84
54876;BME280;40764;48.472;8.166;2022-09-09T15:30:54;97900.69;;;21.60;50.18
54876;BME280;40764;48.472;8.166;2022-09-09T15:36:55;97911.75;;;21.56;50.59
54876;BME280;40764;48.472;8.166;2022-09-09T15:42:55;97907.78;;;21.31;51.63
54876;BME280;40764;48.472;8.166;2022-09-09T15:48:58;97910.47;;;21.24;52.94
54876;BME280;40764;48.472;8.166;2022-09-09T15:55:02;97917.28;;;21.07;56.87
54876;BME280;40764;48.472;8.166;2022-09-09T16:07:05;97924.66;;;20.34;60.52
54876;BME280;40764;48.472;8.166;2022-09-09T16:13:05;97924.88;;;20.45;61.70
54876;BME280;40764;48.472;8.166;2022-09-09T16:19:07;97939.13;;;20.63;57.24
54876;BME280;40764;48.472;8.166;2022-09-09T16:25:09;97944.31;;;20.45;58.74
54876;BME280;40764;48.472;8.166;2022-09-09T16:31:13;97937.97;;;20.25;59.72
54876;BME280;40764;48.472;8.166;2022-09-09T16:37:14;97930.06;;;20.08;59.83
54876;BME280;40764;48.472;8.166;2022-09-09T16:43:14;97938.84;;;19.94;63.49
54876;BME280;40764;48.472;8.166;2022-09-09T16:49:15;97935.19;;;19.71;62.97
54876;BME280;40764;48.472;8.166;2022-09-09T16:55:16;97942.97;;;19.49;65.85
54876;BME280;40764;48.472;8.166;2022-09-09T17:01:16;97934.69;;;19.18;69.12
54876;BME280;40764;48.472;8.166;2022-09-09T17:07:17;97932.09;;;19.25;69.78
54876;BME280;40764;48.472;8.166;2022-09-09T17:13:19;97944.41;;;18.96;73.15
54876;BME280;40764;48.472;8.166;2022-09-09T17:19:19;97955.19;;;18.70;76.16
54876;BME280;40764;48.472;8.166;2022-09-09T17:25:20;97963.69;;;18.49;77.92
54876;BME280;40764;48.472;8.166;2022-09-09T17:31:24;97977.38;;;18.30;79.09
54876;BME280;40764;48.472;8.166;2022-09-09T17:37:25;97975.38;;;17.90;82.18
54876;BME280;40764;48.472;8.166;2022-09-09T17:43:25;97987.28;;;17.42;85.45
54876;BME280;40764;48.472;8.166;2022-09-09T17:49:26;98003.38;;;17.52;85.22
54876;BME280;40764;48.472;8.166;2022-09-09T17:55:26;98016.84;;;17.17;86.87
54876;BME280;40764;48.472;8.166;2022-09-09T18:01:32;98018.41;;;17.06;87.31
54876;BME280;40764;48.472;8.166;2022-09-09T18:07:33;98018.69;;;17.25;85.98
54876;BME280;40764;48.472;8.166;2022-09-09T18:13:34;98025.97;;;16.84;87.57
54876;BME280;40764;48.472;8.166;2022-09-09T18:19:34;98022.41;;;16.63;89.21
54876;BME280;40764;48.472;8.166;2022-09-09T18:25:41;98029.06;;;16.62;90.23
54876;BME280;40764;48.472;8.166;2022-09-09T18:31:41;98034.19;;;16.72;89.26
54876;BME280;40764;48.472;8.166;2022-09-09T18:37:41;98051.75;;;17.00;88.10
54876;BME280;40764;48.472;8.166;2022-09-09T18:43:42;98058.84;;;16.77;88.53
54876;BME280;40764;48.472;8.166;2022-09-09T18:49:43;98061.59;;;16.56;90.90
54876;BME280;40764;48.472;8.166;2022-09-09T18:55:45;98066.16;;;16.52;90.69
54876;BME280;40764;48.472;8.166;2022-09-09T19:01:47;98057.53;;;16.33;91.18
54876;BME280;40764;48.472;8.166;2022-09-09T19:07:49;98054.84;;;16.24;91.36
54876;BME280;40764;48.472;8.166;2022-09-09T19:13:55;98052.50;;;16.35;91.36
54876;BME280;40764;48.472;8.166;2022-09-09T19:19:55;98053.97;;;16.11;91.85
54876;BME280;40764;48.472;8.166;2022-09-09T19:26:00;98064.19;;;16.11;91.95
54876;BME280;40764;48.472;8.166;2022-09-09T19:32:01;98059.59;;;15.94;92.10
54876;BME280;40764;48.472;8.166;2022-09-09T19:38:01;98056.88;;;15.86;92.00
54876;BME280;40764;48.472;8.166;2022-09-09T19:44:03;98060.16;;;15.79;91.76
54876;BME280;40764;48.472;8.166;2022-09-09T19:50:05;98053.38;;;15.76;92.29
54876;BME280;40764;48.472;8.166;2022-09-09T19:56:06;98050.66;;;15.68;92.24
54876;BME280;40764;48.472;8.166;2022-09-09T20:02:11;98057.31;;;15.67;91.39
54876;BME280;40764;48.472;8.166;2022-09-09T20:08:12;98063.69;;;15.50;92.44
54876;BME280;40764;48.472;8.166;2022-09-09T20:14:13;98069.66;;;15.61;91.14
54876;BME280;40764;48.472;8.166;2022-09-09T20:20:14;98075.53;;;15.42;92.36
54876;BME280;40764;48.472;8.166;2022-09-09T20:26:17;98079.88;;;15.52;91.90
54876;BME280;40764;48.472;8.166;2022-09-09T20:32:20;98073.19;;;15.70;90.81
54876;BME280;40764;48.472;8.166;2022-09-09T20:38:20;98069.09;;;15.76;90.04
54876;BME280;40764;48.472;8.166;2022-09-09T20:44:22;98079.97;;;15.72;90.42
54876;BME280;40764;48.472;8.166;2022-09-09T20:50:23;98070.44;;;15.70;90.35
54876;BME280;40764;48.472;8.166;2022-09-09T20:56:25;98074.03;;;15.62;90.66
54876;BME280;40764;48.472;8.166;2022-09-09T21:02:25;98063.91;;;15.74;90.79
54876;BME280;40764;48.472;8.166;2022-09-09T21:08:26;98062.91;;;15.79;90.35
54876;BME280;40764;48.472;8.166;2022-09-09T21:14:27;98067.09;;;15.85;89.59
54876;BME280;40764;48.472;8.166;2022-09-09T21:20:27;98066.22;;;16.23;88.58
54876;BME280;40764;48.472;8.166;2022-09-09T21:26:28;98069.50;;;16.16;88.34
54876;BME280;40764;48.472;8.166;2022-09-09T21:32:28;98056.19;;;16.18;88.27
54876;BME280;40764;48.472;8.166;2022-09-09T21:38:28;98051.97;;;16.21;88.06
54876;BME280;40764;48.472;8.166;2022-09-09T21:44:28;98056.47;;;16.25;87.04
54876;BME280;40764;48.472;8.166;2022-09-09T21:50:29;98065.88;;;16.45;86.38
54876;BME280;40764;48.472;8.166;2022-09-09T21:56:29;98139.88;;;15.93;89.20
54876;BME280;40764;48.472;8.166;2022-09-09T22:02:29;98130.53;;;15.76;93.33
54876;BME280;40764;48.472;8.166;2022-09-09T22:08:30;98121.22;;;15.90;90.88
54876;BME280;40764;48.472;8.166;2022-09-09T22:14:30;98122.31;;;15.68;91.21
54876;BME280;40764;48.472;8.166;2022-09-09T22:20:33;98119.94;;;15.40;94.32
54876;BME280;40764;48.472;8.166;2022-09-09T22:26:38;98129.31;;;15.48;95.97
54876;BME280;40764;48.472;8.166;2022-09-09T22:32:39;98126.00;;;15.16;98.07
54876;BME280;40764;48.472;8.166;2022-09-09T22:38:39;98110.44;;;15.21;98.84
54876;BME280;40764;48.472;8.166;2022-09-09T22:44:40;98114.72;;;15.47;98.70
54876;BME280;40764;48.472;8.166;2022-09-09T22:50:40;98103.53;;;15.53;97.75
54876;BME280;40764;48.472;8.166;2022-09-09T22:56:41;98107.59;;;15.46;97.97
54876;BME280;40764;48.472;8.166;2022-09-09T23:02:41;98101.00;;;15.30;98.57
54876;BME280;40764;48.472;8.166;2022-09-09T23:08:42;98093.91;;;15.21;98.72
54876;BME280;40764;48.472;8.166;2022-09-09T23:14:42;98104.25;;;15.24;98.49
54876;BME280;40764;48.472;8.166;2022-09-09T23:20:43;98096.03;;;15.15;98.66
54876;BME280;40764;48.472;8.166;2022-09-09T23:26:44;98086.19;;;15.05;99.31
54876;BME280;40764;48.472;8.166;2022-09-09T23:32:47;98090.84;;;15.13;98.86
54876;BME280;40764;48.472;8.166;2022-09-09T23:38:48;98091.78;;;15.26;98.99
54876;BME280;40764;48.472;8.166;2022-09-09T23:44:48;98089.56;;;15.11;99.31
54876;BME280;40764;48.472;8.166;2022-09-09T23:50:49;98087.13;;;15.18;98.79
54876;BME280;40764;48.472;8.166;2022-09-09T23:56:50;98088.28;;;15.08;99.67
